createdAt,value
2019-03-25T00:01:50.352Z,100863.50
2019-03-25T00:04:57.333Z,100870.08
2019-03-25T00:08:04.365Z,100870.75
2019-03-25T00:11:11.315Z,100870.73
2019-03-25T00:14:18.722Z,100869.41
2019-03-25T00:17:25.731Z,100866.55
2019-03-25T00:20:34.383Z,100864.20
2019-03-25T00:23:41.194Z,100869.23
2019-03-25T00:26:48.099Z,100867.89
2019-03-25T00:29:55.074Z,100875.49
2019-03-25T00:33:02.092Z,100864.69
2019-03-25T00:36:09.095Z,100867.56
2019-03-25T00:39:16.020Z,100864.88
2019-03-25T00:42:22.960Z,100872.78
2019-03-25T00:45:29.795Z,100870.45
2019-03-25T00:48:38.626Z,100861.17
2019-03-25T00:51:45.573Z,100858.81
2019-03-25T00:54:52.588Z,100851.72
2019-03-25T00:57:59.569Z,100841.28
2019-03-25T01:01:06.802Z,100845.00
2019-03-25T01:04:13.767Z,100846.66
2019-03-25T01:07:20.738Z,100847.36
2019-03-25T01:10:28.315Z,100847.36
2019-03-25T01:13:35.270Z,100845.34
2019-03-25T01:16:42.385Z,100840.60
2019-03-25T01:19:49.612Z,100836.57
2019-03-25T01:22:56.579Z,100838.60
2019-03-25T01:26:04.493Z,100837.42
2019-03-25T01:29:11.530Z,100837.42
2019-03-25T01:32:18.541Z,100840.28
2019-03-25T01:35:25.814Z,100838.94
2019-03-25T01:38:32.722Z,100839.42
2019-03-25T01:41:39.634Z,100842.61
2019-03-25T01:44:46.665Z,100837.39
2019-03-25T01:47:53.575Z,100830.50
2019-03-25T01:51:01.503Z,100825.44
2019-03-25T01:54:09.667Z,100832.85
2019-03-25T01:57:16.709Z,100830.48
2019-03-25T02:00:23.621Z,100830.48
2019-03-25T02:03:30.979Z,100822.91
2019-03-25T02:06:38.112Z,100826.44
2019-03-25T02:09:45.181Z,100828.16
2019-03-25T02:12:52.121Z,100825.11
2019-03-25T02:15:59.024Z,100834.70
2019-03-25T02:19:06.040Z,100835.03
2019-03-25T02:22:13.082Z,100832.48
2019-03-25T02:25:25.630Z,100837.90
2019-03-25T02:28:30.556Z,100831.64
2019-03-25T02:31:37.769Z,100825.42
2019-03-25T02:34:44.924Z,100827.42
2019-03-25T02:37:51.808Z,100835.34
2019-03-25T02:40:58.688Z,100829.47
2019-03-25T02:44:06.651Z,100837.20
2019-03-25T02:47:14.612Z,100830.80
2019-03-25T02:50:21.641Z,100833.83
2019-03-25T02:53:29.246Z,100829.27
2019-03-25T02:56:36.131Z,100826.77
2019-03-25T02:59:43.066Z,100829.77
2019-03-25T03:02:50.158Z,100825.88
2019-03-25T03:05:57.193Z,100829.40
2019-03-25T03:09:05.025Z,100823.66
2019-03-25T03:12:11.968Z,100824.73
2019-03-25T03:15:18.862Z,100841.52
2019-03-25T03:18:25.734Z,100838.99
2019-03-25T03:21:32.589Z,100836.48
2019-03-25T03:24:39.975Z,100827.72
2019-03-25T03:27:47.060Z,100828.69
2019-03-25T03:30:53.970Z,100829.05
2019-03-25T03:34:00.967Z,100833.75
2019-03-25T03:37:07.932Z,100833.25
2019-03-25T03:40:15.004Z,100826.35
2019-03-25T03:43:21.981Z,100834.77
2019-03-25T03:46:29.156Z,100842.86
2019-03-25T03:49:36.174Z,100833.75
2019-03-25T03:52:43.038Z,100834.75
2019-03-25T03:55:50.460Z,100833.08
2019-03-25T03:58:57.870Z,100839.81
2019-03-25T04:02:05.811Z,100848.20
2019-03-25T04:05:12.895Z,100853.13
2019-03-25T04:08:19.905Z,100848.88
2019-03-25T04:11:26.792Z,100844.84
2019-03-25T04:14:33.713Z,100848.88
2019-03-25T04:17:40.571Z,100851.19
2019-03-25T04:20:47.379Z,100846.47
2019-03-25T04:23:54.423Z,100849.31
2019-03-25T04:27:01.488Z,100837.05
2019-03-25T04:30:08.920Z,100841.23
2019-03-25T04:33:15.772Z,100850.79
2019-03-25T04:36:24.113Z,100854.52
2019-03-25T04:39:31.073Z,100849.80
2019-03-25T04:42:38.247Z,100859.53
2019-03-25T04:45:45.116Z,100856.17
2019-03-25T04:48:52.107Z,100869.31
2019-03-25T04:51:59.166Z,100876.71
2019-03-25T04:55:06.219Z,100870.64
2019-03-25T04:58:13.708Z,100875.68
2019-03-25T05:01:20.747Z,100883.39
2019-03-25T05:04:27.723Z,100883.75
2019-03-25T05:07:34.868Z,100881.41
2019-03-25T05:10:41.913Z,100879.80
2019-03-25T05:13:48.814Z,100880.48
2019-03-25T05:16:55.795Z,100878.14
2019-03-25T05:20:02.814Z,100880.11
2019-03-25T05:23:09.652Z,100883.08
2019-03-25T05:26:16.493Z,100880.08
2019-03-25T05:29:23.515Z,100881.42
2019-03-25T05:32:30.399Z,100885.27
2019-03-25T05:35:37.562Z,100886.75
2019-03-25T05:38:44.862Z,100893.17
2019-03-25T05:41:51.708Z,100891.51
2019-03-25T05:44:59.050Z,100910.80
2019-03-25T05:48:05.933Z,100913.31
2019-03-25T05:51:12.870Z,100914.83
2019-03-25T05:54:19.892Z,100912.14
2019-03-25T05:57:27.283Z,100922.23
2019-03-25T06:00:36.014Z,100924.97
2019-03-25T06:03:45.573Z,100941.17
2019-03-25T06:06:54.326Z,100945.24
2019-03-25T06:10:01.217Z,100939.33
2019-03-25T06:13:08.242Z,100928.09
2019-03-25T06:16:15.368Z,100942.27
2019-03-25T06:19:22.911Z,100953.58
2019-03-25T06:22:29.750Z,100956.09
2019-03-25T06:25:38.043Z,100964.98
2019-03-25T06:28:44.947Z,100961.83
2019-03-25T06:31:52.893Z,100971.55
2019-03-25T06:35:00.011Z,100981.61
2019-03-25T06:38:06.994Z,100983.67
2019-03-25T06:41:14.127Z,100999.55
2019-03-25T06:44:22.532Z,100984.09
2019-03-25T06:47:29.485Z,100992.52
2019-03-25T06:50:36.406Z,100994.05
2019-03-25T06:53:43.613Z,100998.06
2019-03-25T06:56:50.546Z,101005.30
2019-03-25T06:59:57.528Z,101016.78
2019-03-25T07:03:05.062Z,101018.86
2019-03-25T07:06:13.480Z,101031.28
2019-03-25T07:09:21.394Z,101039.08
2019-03-25T07:12:28.411Z,101049.19
2019-03-25T07:15:35.513Z,101061.98
2019-03-25T07:18:42.512Z,101046.87
2019-03-25T07:21:49.378Z,101058.01
2019-03-25T07:24:56.384Z,101077.91
2019-03-25T07:28:03.346Z,101077.76
2019-03-25T07:31:10.300Z,101081.80
2019-03-25T07:34:17.297Z,101080.66
2019-03-25T07:37:24.320Z,101096.01
2019-03-25T07:40:31.193Z,101085.22
2019-03-25T07:43:38.157Z,101094.84
2019-03-25T07:46:45.242Z,101108.00
2019-03-25T07:49:52.588Z,101115.57
2019-03-25T07:52:59.459Z,101121.44
2019-03-25T07:56:06.362Z,101124.16
2019-03-25T07:59:13.343Z,101135.80
2019-03-25T08:02:20.248Z,101139.85
2019-03-25T08:05:27.289Z,101144.39
2019-03-25T08:08:34.224Z,101160.94
2019-03-25T08:11:41.231Z,101163.33
2019-03-25T08:14:48.173Z,101162.72
2019-03-25T08:17:55.298Z,101172.20
2019-03-25T08:21:02.261Z,101173.13
2019-03-25T08:24:09.143Z,101173.32
2019-03-25T08:27:16.399Z,101178.56
2019-03-25T08:30:23.301Z,101189.12
2019-03-25T08:33:30.216Z,101188.11
2019-03-25T08:36:37.192Z,101186.72
2019-03-25T08:39:44.351Z,101199.91
2019-03-25T08:42:51.242Z,101200.88
2019-03-25T08:45:58.291Z,101200.80
2019-03-25T08:49:05.255Z,101208.45
2019-03-25T08:52:12.327Z,101220.94
2019-03-25T08:55:19.269Z,101222.20
2019-03-25T08:58:26.290Z,101227.02
2019-03-25T09:01:33.225Z,101243.23
2019-03-25T09:04:40.213Z,101247.84
2019-03-25T09:07:47.297Z,101252.36
2019-03-25T09:10:54.233Z,101248.42
2019-03-25T09:14:01.313Z,101268.23
2019-03-25T09:17:08.340Z,101268.73
2019-03-25T09:20:15.939Z,101256.75
2019-03-25T09:23:23.010Z,101283.09
2019-03-25T09:26:29.981Z,101279.86
2019-03-25T09:29:37.029Z,101282.86
2019-03-25T09:32:44.073Z,101279.75
2019-03-25T09:35:51.413Z,101294.14
2019-03-25T09:38:58.204Z,101282.40
2019-03-25T09:42:05.183Z,101285.14
2019-03-25T09:45:12.480Z,101293.91
2019-03-25T09:48:19.428Z,101294.09
2019-03-25T09:51:26.352Z,101290.52
2019-03-25T09:54:33.266Z,101278.45
2019-03-25T09:57:40.357Z,101288.08
2019-03-25T10:00:47.294Z,101290.77
2019-03-25T10:03:54.450Z,101284.94
2019-03-25T10:07:01.375Z,101288.75
2019-03-25T10:10:09.468Z,101290.63
2019-03-25T10:13:16.468Z,101292.25
2019-03-25T10:16:23.432Z,101300.91
2019-03-25T10:19:30.600Z,101303.89
2019-03-25T10:22:37.831Z,101298.06
2019-03-25T10:25:44.883Z,101297.80
2019-03-25T10:28:52.951Z,101296.64
2019-03-25T10:31:59.891Z,101304.19
2019-03-25T10:35:07.271Z,101299.42
2019-03-25T10:38:19.613Z,101302.30
2019-03-25T10:41:23.909Z,101297.45
2019-03-25T10:44:30.832Z,101308.66
2019-03-25T10:47:37.649Z,101306.38
2019-03-25T10:50:45.677Z,101299.89
2019-03-25T10:53:52.657Z,101297.06
2019-03-25T10:56:59.624Z,101322.48
2019-03-25T11:00:08.729Z,101328.30
2019-03-25T11:03:16.105Z,101324.30
2019-03-25T11:06:23.107Z,101329.00
2019-03-25T11:09:30.187Z,101319.87
2019-03-25T11:12:37.293Z,101319.05
2019-03-25T11:15:44.339Z,101319.05
2019-03-25T11:18:51.506Z,101316.39
2019-03-25T11:21:58.610Z,101324.00
2019-03-25T11:25:05.970Z,101330.86
2019-03-25T11:28:12.995Z,101329.27
2019-03-25T11:31:20.004Z,101332.31
2019-03-25T11:34:26.950Z,101333.39
2019-03-25T11:37:33.933Z,101341.97
2019-03-25T11:40:41.028Z,101345.89
2019-03-25T11:43:48.016Z,101347.81
2019-03-25T11:46:55.106Z,101349.07
2019-03-25T11:50:02.070Z,101331.34
2019-03-25T11:53:12.701Z,101338.72
2019-03-25T11:56:19.748Z,101336.11
2019-03-25T11:59:26.724Z,101340.16
2019-03-25T12:02:33.682Z,101352.58
2019-03-25T12:05:40.822Z,101359.03
2019-03-25T12:08:48.022Z,101353.30
2019-03-25T12:11:55.092Z,101354.35
2019-03-25T12:15:02.399Z,101356.14
2019-03-25T12:18:09.435Z,101356.32
2019-03-25T12:21:16.450Z,101365.95
2019-03-25T12:24:23.456Z,101359.73
2019-03-25T12:27:30.862Z,101359.95
2019-03-25T12:30:38.001Z,101355.37
2019-03-25T12:33:46.056Z,101358.02
2019-03-25T12:36:53.015Z,101351.88
2019-03-25T12:40:00.054Z,101351.20
2019-03-25T12:43:07.185Z,101362.07
2019-03-25T12:46:14.228Z,101356.05
2019-03-25T12:49:21.368Z,101365.73
2019-03-25T12:52:28.245Z,101376.83
2019-03-25T12:55:35.274Z,101362.63
2019-03-25T12:58:42.370Z,101368.19
2019-03-25T13:01:53.231Z,101379.92
2019-03-25T13:04:58.345Z,101370.31
2019-03-25T13:08:05.513Z,101382.64
2019-03-25T13:11:12.466Z,101384.83
2019-03-25T13:14:19.452Z,101385.70
2019-03-25T13:17:26.533Z,101387.75
2019-03-25T13:20:33.616Z,101389.63
2019-03-25T13:23:40.681Z,101387.88
2019-03-25T13:26:47.955Z,101399.59
2019-03-25T13:29:55.185Z,101383.86
2019-03-25T13:33:02.233Z,101401.41
2019-03-25T13:36:09.207Z,101405.30
2019-03-25T13:39:16.121Z,101399.95
2019-03-25T13:42:22.998Z,101403.83
2019-03-25T13:45:30.071Z,101417.44
2019-03-25T13:48:37.020Z,101417.44
2019-03-25T13:51:44.099Z,101427.71
2019-03-25T13:54:51.228Z,101422.42
2019-03-25T13:57:58.475Z,101438.28
2019-03-25T14:01:05.703Z,101423.83
2019-03-25T14:04:13.016Z,101437.89
2019-03-25T14:07:19.990Z,101432.61
2019-03-25T14:10:26.953Z,101428.30
2019-03-25T14:13:33.821Z,101432.36
2019-03-25T14:16:40.709Z,101431.42
2019-03-25T14:19:48.699Z,101440.44
2019-03-25T14:22:55.741Z,101443.09
2019-03-25T14:26:02.913Z,101443.02
2019-03-25T14:29:09.844Z,101442.23
2019-03-25T14:32:16.915Z,101454.84
2019-03-25T14:35:23.851Z,101442.08
2019-03-25T14:38:30.799Z,101440.73
2019-03-25T14:41:37.974Z,101444.75
2019-03-25T14:44:44.935Z,101448.73
2019-03-25T14:47:51.812Z,101445.62
2019-03-25T14:51:03.918Z,101447.66
2019-03-25T14:54:10.819Z,101444.55
2019-03-25T14:57:18.753Z,101447.23
2019-03-25T15:00:26.009Z,101449.57
2019-03-25T15:03:35.443Z,101457.52
2019-03-25T15:06:44.161Z,101451.52
2019-03-25T15:09:51.548Z,101454.69
2019-03-25T15:12:58.947Z,101465.24
2019-03-25T15:16:05.867Z,101405.22
2019-03-25T15:19:12.884Z,101464.86
2019-03-25T15:22:23.372Z,101451.66
2019-03-25T15:25:30.289Z,101475.52
2019-03-25T15:28:37.277Z,101472.91
2019-03-25T15:31:44.194Z,101479.06
2019-03-25T15:34:51.454Z,101473.47
2019-03-25T15:38:00.951Z,101470.17
2019-03-25T15:41:08.093Z,101474.69
2019-03-25T15:44:16.579Z,101477.47
2019-03-25T15:47:23.789Z,101408.22
2019-03-25T15:50:30.870Z,101479.34
2019-03-25T15:53:37.938Z,101416.48
2019-03-25T15:56:44.831Z,101474.27
2019-03-25T15:59:51.744Z,101497.10
2019-03-25T16:02:58.600Z,101494.39
2019-03-25T16:06:06.987Z,101482.50
2019-03-25T16:09:14.073Z,101493.55
2019-03-25T16:12:23.444Z,101497.43
2019-03-25T16:15:42.099Z,101489.66
2019-03-25T16:18:50.728Z,101501.95
2019-03-25T16:21:57.793Z,101509.30
2019-03-25T16:25:05.341Z,101501.87
2019-03-25T16:28:12.512Z,101505.00
2019-03-25T16:31:19.480Z,101430.03
2019-03-25T16:34:28.627Z,101497.34
2019-03-25T16:37:52.621Z,101495.02
2019-03-25T16:41:02.609Z,101499.20
2019-03-25T16:44:09.508Z,101508.09
2019-03-25T16:47:17.563Z,101500.78
2019-03-25T16:50:24.651Z,101505.16
2019-03-25T16:53:31.619Z,101513.38
2019-03-25T16:56:38.582Z,101514.31
2019-03-25T16:59:47.539Z,101505.00
2019-03-25T17:02:57.884Z,101504.53
2019-03-25T17:06:10.291Z,101506.05
2019-03-25T17:09:55.255Z,101507.56
2019-03-25T17:12:59.443Z,101510.09
2019-03-25T17:16:09.079Z,101506.72
2019-03-25T17:19:16.016Z,101506.38
2019-03-25T17:22:23.112Z,101514.03
2019-03-25T17:25:31.719Z,101514.56
2019-03-25T17:28:38.623Z,101502.81
2019-03-25T17:31:45.540Z,101502.81
2019-03-25T17:34:52.581Z,101518.65
2019-03-25T17:37:59.885Z,101511.20
2019-03-25T17:41:06.764Z,101517.31
2019-03-25T17:44:13.936Z,101516.66
2019-03-25T17:47:22.492Z,101518.69
2019-03-25T17:50:30.017Z,101518.04
2019-03-25T17:53:37.623Z,101517.00
2019-03-25T17:56:44.720Z,101513.64
2019-03-25T17:59:51.705Z,101516.18
2019-03-25T18:02:58.861Z,101515.34
2019-03-25T18:06:05.753Z,101509.27
2019-03-25T18:09:12.786Z,101515.05
2019-03-25T18:12:21.216Z,101523.13
2019-03-25T18:15:28.264Z,101514.00
2019-03-25T18:18:35.194Z,101522.80
2019-03-25T18:21:42.460Z,101517.86
2019-03-25T18:24:49.454Z,101514.66
2019-03-25T18:27:57.193Z,101518.37
2019-03-25T18:31:04.231Z,101514.47
2019-03-25T18:34:15.305Z,101518.05
2019-03-25T18:37:23.049Z,101515.16
2019-03-25T18:40:30.315Z,101519.02
2019-03-25T18:43:38.213Z,101504.10
2019-03-25T18:46:45.182Z,101498.04
2019-03-25T18:49:52.171Z,101504.08
2019-03-25T18:52:59.431Z,101505.05
2019-03-25T18:56:06.341Z,101500.32
2019-03-25T18:59:13.651Z,101500.11
2019-03-25T19:02:20.494Z,101491.79
2019-03-25T19:05:27.344Z,101486.70
2019-03-25T19:08:34.249Z,101497.20
2019-03-25T19:11:41.179Z,101487.83
2019-03-25T19:14:48.397Z,101488.64
2019-03-25T19:17:55.338Z,101412.72
2019-03-25T19:21:02.234Z,101483.82
2019-03-25T19:24:09.043Z,101489.53
2019-03-25T19:27:17.614Z,101495.59
2019-03-25T19:30:25.665Z,101494.94
2019-03-25T19:33:32.675Z,101493.22
2019-03-25T19:36:41.237Z,101491.18
2019-03-25T19:39:48.287Z,101487.77
2019-03-25T19:42:55.443Z,101487.71
2019-03-25T19:46:02.374Z,101491.44
2019-03-25T19:49:10.324Z,101482.31
2019-03-25T19:52:17.372Z,101488.38
2019-03-25T19:55:25.503Z,101478.25
2019-03-25T19:58:32.385Z,101470.88
2019-03-25T20:01:39.225Z,101461.98
2019-03-25T20:04:46.193Z,101462.67
2019-03-25T20:07:53.127Z,101459.60
2019-03-25T20:11:00.117Z,101471.06
2019-03-25T20:14:07.142Z,101466.88
2019-03-25T20:17:14.115Z,101463.94
2019-03-25T20:20:21.103Z,101462.58
2019-03-25T20:23:28.088Z,101466.26
2019-03-25T20:26:34.982Z,101457.59
2019-03-25T20:29:42.000Z,101453.74
2019-03-25T20:32:50.036Z,101451.04
2019-03-25T20:35:57.014Z,101456.16
2019-03-25T20:39:05.746Z,101387.26
2019-03-25T20:42:12.978Z,101445.36
2019-03-25T20:45:20.344Z,101445.78
2019-03-25T20:48:27.259Z,101446.57
2019-03-25T20:51:34.285Z,101438.17
2019-03-25T20:54:44.651Z,101426.03
2019-03-25T20:57:52.040Z,101424.02
2019-03-25T21:01:00.564Z,101424.02
2019-03-25T21:04:09.898Z,101421.36
2019-03-25T21:07:16.987Z,101413.14
2019-03-25T21:10:23.957Z,101412.45
2019-03-25T21:13:31.130Z,101407.01
2019-03-25T21:16:38.152Z,101403.27
2019-03-25T21:19:47.488Z,101400.95
2019-03-25T21:22:54.496Z,101395.83
2019-03-25T21:26:01.383Z,101384.75
2019-03-25T21:29:08.346Z,101367.59
2019-03-25T21:32:16.552Z,101374.94
2019-03-25T21:35:24.502Z,101371.55
2019-03-25T21:38:31.566Z,101362.36
2019-03-25T21:41:38.579Z,101367.16
2019-03-25T21:44:45.611Z,101356.42
2019-03-25T21:47:52.644Z,101356.42
2019-03-25T21:50:59.565Z,101347.47
2019-03-25T21:54:06.549Z,101342.69
2019-03-25T21:57:13.719Z,101338.81
2019-03-25T22:00:21.847Z,101340.83
2019-03-25T22:03:28.888Z,101326.95
2019-03-25T22:06:35.831Z,101331.66
2019-03-25T22:09:42.786Z,101310.77
2019-03-25T22:12:49.711Z,101310.77
2019-03-25T22:15:56.680Z,101309.30
2019-03-25T22:19:03.586Z,101300.70
2019-03-25T22:22:10.665Z,101293.97
2019-03-25T22:25:17.729Z,101289.59
2019-03-25T22:28:24.552Z,101289.92
2019-03-25T22:31:31.652Z,101289.78
2019-03-25T22:34:38.660Z,101280.48
2019-03-25T22:37:45.837Z,101274.77
2019-03-25T22:40:52.715Z,101274.59
2019-03-25T22:43:59.719Z,101260.75
2019-03-25T22:47:06.740Z,101267.67
2019-03-25T22:50:27.098Z,101262.95
2019-03-25T22:53:34.094Z,101252.10
2019-03-25T22:56:41.184Z,101239.35
2019-03-25T22:59:48.347Z,101235.66
2019-03-25T23:02:55.477Z,101228.25
2019-03-25T23:06:03.335Z,101215.95
2019-03-25T23:09:10.271Z,101213.33
2019-03-25T23:12:17.395Z,101224.05
2019-03-25T23:15:24.306Z,101217.94
2019-03-25T23:18:31.119Z,101211.55
2019-03-25T23:21:38.496Z,101209.17
2019-03-25T23:24:45.541Z,101205.07
2019-03-25T23:27:52.486Z,101200.41
2019-03-25T23:30:59.416Z,101194.16
2019-03-25T23:34:06.433Z,101183.67
2019-03-25T23:37:13.539Z,101181.47
2019-03-25T23:40:21.235Z,101170.69
2019-03-25T23:43:28.051Z,101163.64
2019-03-25T23:46:35.049Z,101160.64
2019-03-25T23:49:41.989Z,101148.83
2019-03-25T23:52:49.153Z,101143.75
2019-03-25T23:55:56.057Z,101149.14
2019-03-25T23:59:03.063Z,101136.03
